Big Bear Station Historical Data
Daily Summary for November 14, 2017 Units:  English    Metric   Both
« Previous Day
Next Day »
Daily Weekly Monthly Yearly Custom
  High: Low: Average:
Temperature: 62.4 °F 40.3 °F 48.9 °F
Dew Point: 32.3 °F 16.5 °F 25.3 °F
Humidity: 58 % 30 % 40 %
Wind Speed: 4.7 mph 0.0 mph 1.1 mph
Wind Gust: -999.0 mph - -
Wind:- - WSW
Pressure: 30.26 in 30.19 in -
Precipitation: 0.00 in    
Historical Graphs
 
 
Tabular Data for November 14, 2017
Time Temperature Dew Point Pressure Wind Wind Speed Wind Gust Humidity Rainfall Rate (Hourly)
00:08 44.4 °F 17.1 °F 30.24 in SSW 2.2 mph -999.0 mph 33 % 0 in
00:24 43.9 °F 16.6 °F 30.24 in Calm   -999.0 mph 33 % 0 in
00:39 44.6 °F 16.5 °F 30.24 in Calm   -999.0 mph 32 % 0 in
00:54 45.0 °F 16.9 °F 30.23 in Calm   -999.0 mph 32 % 0 in
01:09 44.2 °F 16.9 °F 30.23 in Calm   -999.0 mph 33 % 0 in
01:25 44.8 °F 17.4 °F 30.23 in Calm   -999.0 mph 33 % 0 in
01:40 44.8 °F 18.1 °F 30.23 in Calm   -999.0 mph 34 % 0 in
01:55 45.7 °F 18.9 °F 30.23 in Calm   -999.0 mph 34 % 0 in
02:10 45.5 °F 18.7 °F 30.22 in Calm   -999.0 mph 34 % 0 in
02:25 44.4 °F 18.4 °F 30.22 in SSW 2.7 mph -999.0 mph 35 % 0 in
02:41 44.6 °F 18.6 °F 30.22 in South 2.2 mph -999.0 mph 35 % 0 in
02:56 43.9 °F 19.3 °F 30.22 in Calm   -999.0 mph 37 % 0 in
03:11 44.1 °F 19.5 °F 30.22 in Calm   -999.0 mph 37 % 0 in
03:26 44.2 °F 19.6 °F 30.22 in Calm   -999.0 mph 37 % 0 in
03:41 44.1 °F 19.5 °F 30.22 in Calm   -999.0 mph 37 % 0 in
03:57 44.2 °F 18.9 °F 30.22 in Calm   -999.0 mph 36 % 0 in
04:12 44.4 °F 19.7 °F 30.22 in SW 1.7 mph -999.0 mph 37 % 0 in
04:27 44.6 °F 20.5 °F 30.22 in Calm   -999.0 mph 38 % 0 in
04:42 44.4 °F 21.0 °F 30.22 in Calm   -999.0 mph 39 % 0 in
04:57 43.7 °F 22.1 °F 30.23 in Calm   -999.0 mph 42 % 0 in
05:13 43.0 °F 22.0 °F 30.23 in Calm   -999.0 mph 43 % 0 in
05:28 41.9 °F 21.6 °F 30.23 in Calm   -999.0 mph 44 % 0 in
05:43 41.4 °F 21.6 °F 30.23 in Calm   -999.0 mph 45 % 0 in
05:59 41.5 °F 21.2 °F 30.24 in SSE 2.2 mph -999.0 mph 44 % 0 in
06:14 41.4 °F 22.2 °F 30.24 in SSW 1.7 mph -999.0 mph 46 % 0 in
06:29 41.0 °F 23.8 °F 30.24 in SSE 2.2 mph -999.0 mph 50 % 0 in
06:44 41.0 °F 23.3 °F 30.24 in South 2.2 mph -999.0 mph 49 % 0 in
06:59 40.8 °F 23.6 °F 30.24 in Calm   -999.0 mph 50 % 0 in
07:15 41.5 °F 25.2 °F 30.24 in South 1.1 mph -999.0 mph 52 % 0 in
07:30 41.9 °F 24.6 °F 30.25 in Calm   -999.0 mph 50 % 0 in
07:45 42.1 °F 27.1 °F 30.25 in South 1.1 mph -999.0 mph 55 % 0 in
08:01 43.5 °F 28.8 °F 30.25 in Calm   -999.0 mph 56 % 0 in
08:16 45.5 °F 28.4 °F 30.25 in Calm   -999.0 mph 51 % 0 in
08:31 48.2 °F 24.4 °F 30.25 in SSW 1.7 mph -999.0 mph 39 % 0 in
08:46 51.3 °F 24.6 °F 30.25 in ESE 1.1 mph -999.0 mph 35 % 0 in
09:02 53.2 °F 25.5 °F 30.26 in North 2.7 mph -999.0 mph 34 % 0 in
09:17 53.8 °F 26.8 °F 30.26 in WNW 1.7 mph -999.0 mph 35 % 0 in
09:32 54.7 °F 28.9 °F 30.26 in WNW 3.2 mph -999.0 mph 37 % 0 in
09:48 55.4 °F 29.5 °F 30.26 in NW 2.2 mph -999.0 mph 37 % 0 in
10:03 56.7 °F 30.7 °F 30.25 in NW 2.7 mph -999.0 mph 37 % 0 in
10:19 57.0 °F 30.3 °F 30.25 in NW 3.7 mph -999.0 mph 36 % 0 in
10:34 58.1 °F 29.9 °F 30.25 in Calm   -999.0 mph 34 % 0 in
10:49 58.8 °F 29.7 °F 30.24 in NNW 3.2 mph -999.0 mph 33 % 0 in
11:05 59.7 °F 29.0 °F 30.25 in Calm   -999.0 mph 31 % 0 in
11:20 59.4 °F 29.5 °F 30.24 in West 1.7 mph -999.0 mph 32 % 0 in
11:35 60.3 °F 30.3 °F 30.23 in ENE 1.1 mph -999.0 mph 32 % 0 in
11:50 61.5 °F 30.6 °F 30.22 in Calm   -999.0 mph 31 % 0 in
12:06 61.3 °F 29.6 °F 30.22 in NW 3.7 mph -999.0 mph 30 % 0 in
12:21 61.3 °F 30.4 °F 30.21 in NW 2.7 mph -999.0 mph 31 % 0 in
12:36 62.4 °F 32.1 °F 30.21 in North 3.7 mph -999.0 mph 32 % 0 in
12:51 60.1 °F 32.3 °F 30.21 in WNW 4.7 mph -999.0 mph 35 % 0 in
13:07 59.7 °F 30.5 °F 30.20 in WNW 3.7 mph -999.0 mph 33 % 0 in
13:22 59.7 °F 31.3 °F 30.20 in NNW 2.7 mph -999.0 mph 34 % 0 in
13:37 58.8 °F 30.5 °F 30.20 in NW 3.2 mph -999.0 mph 34 % 0 in
13:53 58.8 °F 29.7 °F 30.20 in West 2.7 mph -999.0 mph 33 % 0 in
14:08 58.6 °F 29.6 °F 30.20 in Calm   -999.0 mph 33 % 0 in
14:23 58.1 °F 30.6 °F 30.20 in WNW 2.7 mph -999.0 mph 35 % 0 in
14:38 56.7 °F 30.0 °F 30.20 in WNW 2.2 mph -999.0 mph 36 % 0 in
14:53 56.5 °F 29.2 °F 30.19 in Calm   -999.0 mph 35 % 0 in
15:08 55.9 °F 29.3 °F 30.19 in NW 1.7 mph -999.0 mph 36 % 0 in
15:24 54.9 °F 29.1 °F 30.20 in WNW 1.7 mph -999.0 mph 37 % 0 in
15:39 54.0 °F 29.0 °F 30.20 in Calm   -999.0 mph 38 % 0 in
15:54 53.2 °F 28.9 °F 30.20 in Calm   -999.0 mph 39 % 0 in
16:09 52.3 °F 28.1 °F 30.19 in Calm   -999.0 mph 39 % 0 in
16:25 51.1 °F 28.2 °F 30.19 in West 1.7 mph -999.0 mph 41 % 0 in
16:40 50.2 °F 28.0 °F 30.19 in Calm   -999.0 mph 42 % 0 in
16:55 48.9 °F 27.4 °F 30.19 in Calm   -999.0 mph 43 % 0 in
17:10 48.6 °F 27.7 °F 30.19 in Calm   -999.0 mph 44 % 0 in
17:26 48.2 °F 27.3 °F 30.19 in Calm   -999.0 mph 44 % 0 in
17:41 47.3 °F 27.0 °F 30.22 in WSW 1.1 mph -999.0 mph 45 % 0 in
17:56 46.8 °F 26.6 °F 30.22 in South 2.7 mph -999.0 mph 45 % 0 in
18:12 45.3 °F 25.2 °F 30.22 in SSE 1.7 mph -999.0 mph 45 % 0 in
18:27 44.4 °F 24.9 °F 30.22 in Calm   -999.0 mph 46 % 0 in
18:42 43.3 °F 25.4 °F 30.22 in Calm   -999.0 mph 49 % 0 in
18:57 42.6 °F 26.2 °F 30.23 in Calm   -999.0 mph 52 % 0 in
19:28 41.5 °F 25.2 °F 30.22 in SSE 2.7 mph -999.0 mph 52 % 0 in
19:43 41.2 °F 26.2 °F 30.22 in Calm   -999.0 mph 55 % 0 in
19:58 40.8 °F 27.2 °F 30.23 in Calm   -999.0 mph 58 % 0 in
20:13 40.6 °F 27.0 °F 30.22 in Calm   -999.0 mph 58 % 0 in
20:29 41.5 °F 26.5 °F 30.23 in Calm   -999.0 mph 55 % 0 in
20:44 41.0 °F 25.6 °F 30.22 in Calm   -999.0 mph 54 % 0 in
20:59 40.3 °F 25.0 °F 30.23 in Calm   -999.0 mph 54 % 0 in
Big Bear CA Weather
Compliments of Weather Underground - 1.5 mb